createdAt,value
2024-01-12T00:01:38.315Z,7.03
2024-01-12T00:04:05.928Z,4.97
2024-01-12T00:06:34.527Z,6.40
2024-01-12T00:09:01.971Z,5.00
2024-01-12T00:11:29.506Z,5.67
2024-01-12T00:13:57.093Z,5.27
2024-01-12T00:16:24.691Z,6.67
2024-01-12T00:18:52.400Z,5.63
2024-01-12T00:21:19.868Z,5.97
2024-01-12T00:23:47.499Z,6.07
2024-01-12T00:26:15.101Z,5.77
2024-01-12T00:28:42.629Z,5.33
2024-01-12T00:31:11.011Z,4.97
2024-01-12T00:33:38.741Z,6.33
2024-01-12T00:36:07.039Z,7.47
2024-01-12T00:38:34.617Z,7.20
2024-01-12T00:41:02.206Z,7.53
2024-01-12T00:43:30.568Z,8.70
2024-01-12T00:45:58.140Z,8.57
2024-01-12T00:48:25.879Z,9.60
2024-01-12T00:50:53.357Z,9.20
2024-01-12T00:53:20.952Z,8.77
2024-01-12T00:55:48.518Z,9.47
2024-01-12T00:58:16.127Z,9.27
2024-01-12T01:00:43.715Z,9.90
2024-01-12T01:03:11.308Z,10.20
2024-01-12T01:05:39.029Z,10.80
2024-01-12T01:08:06.504Z,13.20
2024-01-12T01:10:34.105Z,11.17
2024-01-12T01:13:01.754Z,9.70
2024-01-12T01:15:29.336Z,10.30
2024-01-12T01:17:57.837Z,9.73
2024-01-12T01:20:25.332Z,9.77
2024-01-12T01:22:52.906Z,12.70
2024-01-12T01:25:20.487Z,12.83
2024-01-12T01:27:48.091Z,11.33
2024-01-12T01:30:15.712Z,11.10
2024-01-12T01:32:43.440Z,10.30
2024-01-12T01:35:11.665Z,10.00
2024-01-12T01:37:40.017Z,10.63
2024-01-12T01:40:07.821Z,9.70
2024-01-12T01:42:35.423Z,9.93
2024-01-12T01:45:03.083Z,9.80
2024-01-12T01:47:31.398Z,12.40
2024-01-12T01:49:59.011Z,9.20
2024-01-12T01:52:26.584Z,9.50
2024-01-12T01:54:54.164Z,8.80
2024-01-12T01:57:22.553Z,9.67
2024-01-12T01:59:50.181Z,8.90
2024-01-12T02:02:17.761Z,8.70
2024-01-12T02:04:45.342Z,8.20
2024-01-12T02:07:12.917Z,9.10
2024-01-12T02:09:40.544Z,8.53
2024-01-12T02:12:08.158Z,8.70
2024-01-12T02:14:35.788Z,8.77
2024-01-12T02:17:04.181Z,8.43
2024-01-12T02:19:31.842Z,8.73
2024-01-12T02:22:00.168Z,8.80
2024-01-12T02:24:27.751Z,8.50
2024-01-12T02:26:56.143Z,9.27
2024-01-12T02:29:24.536Z,9.93
2024-01-12T02:31:52.100Z,9.23
2024-01-12T02:34:19.705Z,9.20
2024-01-12T02:36:47.294Z,9.00
2024-01-12T02:39:15.642Z,8.27
2024-01-12T02:41:43.266Z,9.27
2024-01-12T02:44:10.864Z,8.17
2024-01-12T02:46:39.219Z,8.33
2024-01-12T02:49:06.917Z,9.10
2024-01-12T02:51:34.435Z,10.30
2024-01-12T02:54:02.132Z,8.90
2024-01-12T02:56:29.757Z,8.87
2024-01-12T02:58:57.222Z,8.77
2024-01-12T03:01:24.812Z,8.47
2024-01-12T03:03:53.196Z,10.83
2024-01-12T03:06:20.858Z,9.13
2024-01-12T03:08:49.178Z,8.17
2024-01-12T03:11:16.759Z,7.90
2024-01-12T03:13:44.310Z,7.60
2024-01-12T03:16:20.998Z,8.10
2024-01-12T03:18:51.670Z,7.73
2024-01-12T03:21:19.918Z,7.63
2024-01-12T03:23:47.512Z,10.80
2024-01-12T03:26:15.076Z,11.07
2024-01-12T03:28:42.591Z,8.90
2024-01-12T03:31:10.295Z,7.73
2024-01-12T03:33:37.861Z,8.87
2024-01-12T03:36:08.365Z,8.13
2024-01-12T03:38:36.000Z,8.23
2024-01-12T03:41:03.528Z,10.40
2024-01-12T03:43:31.089Z,8.40
2024-01-12T03:45:58.701Z,8.93
2024-01-12T03:48:27.189Z,8.70
2024-01-12T03:50:54.786Z,8.17
2024-01-12T03:53:23.073Z,10.50
2024-01-12T03:55:51.377Z,8.57
2024-01-12T03:58:18.968Z,8.73
2024-01-12T04:00:47.377Z,8.67
2024-01-12T04:03:15.062Z,7.37
2024-01-12T04:05:42.584Z,7.83
2024-01-12T04:08:10.130Z,8.00
2024-01-12T04:10:37.727Z,10.17
2024-01-12T04:13:05.295Z,9.00
2024-01-12T04:15:32.903Z,8.43
2024-01-12T04:18:01.411Z,10.90
2024-01-12T04:20:28.868Z,8.63
2024-01-12T04:22:57.192Z,8.33
2024-01-12T04:25:25.556Z,8.10
2024-01-12T04:27:53.133Z,8.53
2024-01-12T04:30:20.774Z,10.32
2024-01-12T04:32:48.406Z,8.23
2024-01-12T04:35:15.926Z,7.73
2024-01-12T04:37:43.487Z,8.10
2024-01-12T04:40:11.244Z,10.43
2024-01-12T04:42:39.598Z,8.30
2024-01-12T04:45:07.384Z,7.30
2024-01-12T04:47:34.909Z,9.63
2024-01-12T04:50:02.424Z,10.23
2024-01-12T04:52:30.018Z,8.27
2024-01-12T04:54:57.600Z,7.57
2024-01-12T04:57:25.187Z,7.80
2024-01-12T04:59:53.604Z,6.70
2024-01-12T05:02:21.981Z,7.43
2024-01-12T05:04:49.482Z,7.30
2024-01-12T05:07:17.123Z,9.48
2024-01-12T05:09:44.739Z,10.15
2024-01-12T05:12:12.333Z,7.53
2024-01-12T05:14:40.758Z,7.27
2024-01-12T05:17:07.494Z,7.43
2024-01-12T05:19:35.115Z,6.67
2024-01-12T05:22:02.661Z,6.73
2024-01-12T05:24:30.224Z,6.77
2024-01-12T05:26:57.887Z,6.23
2024-01-12T05:29:25.420Z,7.00
2024-01-12T05:31:53.817Z,6.93
2024-01-12T05:34:21.357Z,6.83
2024-01-12T05:36:48.923Z,6.47
2024-01-12T05:39:16.518Z,6.70
2024-01-12T05:41:45.136Z,6.70
2024-01-12T05:44:12.709Z,6.93
2024-01-12T05:46:44.022Z,6.03
2024-01-12T05:49:11.806Z,7.03
2024-01-12T05:51:39.199Z,6.50
2024-01-12T05:54:06.864Z,6.73
2024-01-12T05:56:34.400Z,7.63
2024-01-12T05:59:01.985Z,9.60
2024-01-12T06:01:29.574Z,9.73
2024-01-12T06:03:57.202Z,7.20
2024-01-12T06:06:24.819Z,7.57
2024-01-12T06:08:52.379Z,9.47
2024-01-12T06:11:19.979Z,7.00
2024-01-12T06:13:47.580Z,6.57
2024-01-12T06:16:15.298Z,6.60
2024-01-12T06:18:42.902Z,9.00
2024-01-12T06:21:10.425Z,7.07
2024-01-12T06:23:38.000Z,6.90
2024-01-12T06:26:05.524Z,9.15
2024-01-12T06:28:33.153Z,7.40
2024-01-12T06:31:00.778Z,7.13
2024-01-12T06:33:29.133Z,6.87
2024-01-12T06:35:56.736Z,6.50
2024-01-12T06:38:25.052Z,8.83
2024-01-12T06:40:52.610Z,7.83
2024-01-12T06:43:21.039Z,7.17
2024-01-12T06:45:48.612Z,7.07
2024-01-12T06:48:16.297Z,7.17
2024-01-12T06:50:43.909Z,6.70
2024-01-12T06:53:11.396Z,9.07
2024-01-12T06:55:38.972Z,6.60
2024-01-12T06:58:07.364Z,7.60
2024-01-12T07:00:35.728Z,7.77
2024-01-12T07:03:04.245Z,6.30
2024-01-12T07:05:31.815Z,7.03
2024-01-12T07:08:00.062Z,9.53
2024-01-12T07:10:27.651Z,7.73
2024-01-12T07:12:55.251Z,7.30
2024-01-12T07:15:22.828Z,7.27
2024-01-12T07:17:53.054Z,7.43
2024-01-12T07:20:21.417Z,10.18
2024-01-12T07:22:48.926Z,8.00
2024-01-12T07:25:16.510Z,7.73
2024-01-12T07:27:46.456Z,7.50
2024-01-12T07:30:11.833Z,7.33
2024-01-12T07:32:39.469Z,7.30
2024-01-12T07:35:06.986Z,7.13
2024-01-12T07:37:34.528Z,6.93
2024-01-12T07:40:02.111Z,7.53
2024-01-12T07:42:30.489Z,10.30
2024-01-12T07:44:58.932Z,8.23
2024-01-12T07:47:26.550Z,7.77
2024-01-12T07:49:54.063Z,11.02
2024-01-12T07:52:23.389Z,9.60
2024-01-12T07:54:49.172Z,8.07
2024-01-12T07:57:16.829Z,6.80
2024-01-12T07:59:44.506Z,7.50
2024-01-12T08:02:11.995Z,8.17
2024-01-12T08:04:39.629Z,7.73
2024-01-12T08:07:07.391Z,10.70
2024-01-12T08:09:34.784Z,7.60
2024-01-12T08:12:02.391Z,7.83
2024-01-12T08:14:29.946Z,10.83
2024-01-12T08:16:57.557Z,9.17
2024-01-12T08:19:25.144Z,7.97
2024-01-12T08:21:56.318Z,10.13
2024-01-12T08:24:20.326Z,8.80
2024-01-12T08:26:48.911Z,10.80
2024-01-12T08:29:17.255Z,8.70
2024-01-12T08:31:44.665Z,8.40
2024-01-12T08:34:12.457Z,8.77
2024-01-12T08:36:39.876Z,7.53
2024-01-12T08:39:07.505Z,8.13
2024-01-12T08:41:35.075Z,8.33
2024-01-12T08:44:02.648Z,7.80
2024-01-12T08:46:30.990Z,10.38
2024-01-12T08:48:58.713Z,8.77
2024-01-12T08:51:26.202Z,8.23
2024-01-12T08:53:53.811Z,7.57
2024-01-12T08:56:21.478Z,8.03
2024-01-12T08:58:48.993Z,11.33
2024-01-12T09:01:16.638Z,7.40
2024-01-12T09:03:44.360Z,8.73
2024-01-12T09:06:11.995Z,7.63
2024-01-12T09:08:39.414Z,8.00
2024-01-12T09:11:07.748Z,6.87
2024-01-12T09:13:36.100Z,8.10
2024-01-12T09:16:03.701Z,8.30
2024-01-12T09:18:31.430Z,7.87
2024-01-12T09:20:58.966Z,7.97
2024-01-12T09:23:27.316Z,7.10
2024-01-12T09:25:55.750Z,7.93
2024-01-12T09:28:22.528Z,7.77
2024-01-12T09:30:50.120Z,7.97
2024-01-12T09:33:18.583Z,8.23
2024-01-12T09:35:46.849Z,8.13
2024-01-12T09:38:14.373Z,7.93
2024-01-12T09:40:42.762Z,7.83
2024-01-12T09:43:10.354Z,7.73
2024-01-12T09:45:37.998Z,7.90
2024-01-12T09:48:05.708Z,7.63
2024-01-12T09:50:33.253Z,7.40
2024-01-12T09:53:00.843Z,7.23
2024-01-12T09:55:28.458Z,6.67
2024-01-12T09:57:56.043Z,6.60
2024-01-12T10:00:23.641Z,6.83
2024-01-12T10:02:52.062Z,6.73
2024-01-12T10:05:20.452Z,6.83
2024-01-12T10:07:47.931Z,6.90
2024-01-12T10:10:15.628Z,6.70
2024-01-12T10:12:43.128Z,6.93
2024-01-12T10:15:10.976Z,6.83
2024-01-12T10:17:38.551Z,7.40
2024-01-12T10:20:06.236Z,8.60
2024-01-12T10:22:34.529Z,9.32
2024-01-12T10:25:02.204Z,6.57
2024-01-12T10:27:29.757Z,7.03
2024-01-12T10:29:58.162Z,6.57
2024-01-12T10:32:25.773Z,6.57
2024-01-12T10:34:53.324Z,6.90
2024-01-12T10:37:20.883Z,8.77
2024-01-12T10:39:48.514Z,7.07
2024-01-12T10:42:16.149Z,7.07
2024-01-12T10:44:43.728Z,6.70
2024-01-12T10:47:20.062Z,6.23
2024-01-12T10:50:05.813Z,6.67
2024-01-12T10:52:41.808Z,5.37
2024-01-12T10:55:10.164Z,5.23
2024-01-12T10:57:37.750Z,5.70
2024-01-12T11:00:07.340Z,6.13
2024-01-12T11:02:34.880Z,5.40
2024-01-12T11:05:02.456Z,5.87
2024-01-12T11:07:30.193Z,6.40
2024-01-12T11:09:58.381Z,6.00
2024-01-12T11:12:31.677Z,5.47
2024-01-12T11:14:59.333Z,7.68
2024-01-12T11:17:29.885Z,6.87
2024-01-12T11:20:13.005Z,6.33
2024-01-12T11:22:39.923Z,6.00
2024-01-12T11:25:07.627Z,5.77
2024-01-12T11:27:35.974Z,7.77
2024-01-12T11:30:03.660Z,6.13
2024-01-12T11:32:31.389Z,5.57
2024-01-12T11:35:17.211Z,5.83
2024-01-12T11:37:48.640Z,5.43
2024-01-12T11:40:16.205Z,5.07
2024-01-12T11:42:43.831Z,5.10
2024-01-12T11:45:11.509Z,6.00
2024-01-12T11:47:41.671Z,5.53
2024-01-12T11:50:10.181Z,5.53
2024-01-12T11:52:37.642Z,5.17
2024-01-12T11:55:08.279Z,5.47
2024-01-12T11:57:35.908Z,5.90
2024-01-12T12:00:04.323Z,6.30
2024-01-12T12:02:31.932Z,5.47
2024-01-12T12:04:59.504Z,5.10
2024-01-12T12:07:27.009Z,7.03
2024-01-12T12:09:54.583Z,5.60
2024-01-12T12:12:22.239Z,5.67
2024-01-12T12:14:55.865Z,7.27
2024-01-12T12:17:24.172Z,6.07
2024-01-12T12:19:51.841Z,6.00
2024-01-12T12:22:19.335Z,6.00
2024-01-12T12:24:46.898Z,4.97
2024-01-12T12:27:14.524Z,5.80
2024-01-12T12:29:42.147Z,7.00
2024-01-12T12:32:15.572Z,5.57
2024-01-12T12:34:46.770Z,5.90
2024-01-12T12:37:17.164Z,5.43
2024-01-12T12:39:44.772Z,5.20
2024-01-12T12:42:14.324Z,7.28
2024-01-12T12:44:40.042Z,6.03
2024-01-12T12:47:07.522Z,5.57
2024-01-12T12:49:37.883Z,5.80
2024-01-12T12:52:06.160Z,4.97
2024-01-12T12:54:33.721Z,5.53
2024-01-12T12:57:02.298Z,6.03
2024-01-12T12:59:33.216Z,5.37
2024-01-12T13:02:00.729Z,5.07
2024-01-12T13:04:28.371Z,5.63
2024-01-12T13:06:56.852Z,5.17
2024-01-12T13:09:24.399Z,5.97
2024-01-12T13:11:52.787Z,5.63
2024-01-12T13:14:21.247Z,5.63
2024-01-12T13:16:48.765Z,6.00
2024-01-12T13:19:22.873Z,5.50
2024-01-12T13:21:44.704Z,6.03
2024-01-12T13:24:12.297Z,5.53
2024-01-12T13:26:40.725Z,5.90
2024-01-12T13:29:09.034Z,6.03
2024-01-12T13:31:36.608Z,6.40
2024-01-12T13:34:05.224Z,7.90
2024-01-12T13:36:32.613Z,6.00
2024-01-12T13:39:00.363Z,6.10
2024-01-12T13:41:27.777Z,6.17
2024-01-12T13:43:55.367Z,6.30
2024-01-12T13:46:22.940Z,6.43
2024-01-12T13:48:50.700Z,6.13
2024-01-12T13:51:18.145Z,5.23
2024-01-12T13:53:46.982Z,7.10
2024-01-12T13:56:14.109Z,5.83
2024-01-12T13:58:41.660Z,5.37
2024-01-12T14:01:12.189Z,5.30
2024-01-12T14:03:39.850Z,5.20
2024-01-12T14:06:07.452Z,5.37
2024-01-12T14:08:34.983Z,5.67
2024-01-12T14:11:02.552Z,5.00
2024-01-12T14:13:30.137Z,5.00
2024-01-12T14:15:57.716Z,5.07
2024-01-12T14:18:25.570Z,5.43
2024-01-12T14:20:53.056Z,5.20
2024-01-12T14:23:21.353Z,5.43
2024-01-12T14:25:48.886Z,5.00
2024-01-12T14:28:24.133Z,6.80
2024-01-12T14:30:44.078Z,5.27
2024-01-12T14:33:11.721Z,7.87
2024-01-12T14:35:40.032Z,6.70
2024-01-12T14:38:07.575Z,5.70
2024-01-12T14:40:35.946Z,5.27
2024-01-12T14:43:03.512Z,4.70
2024-01-12T14:45:31.088Z,5.30
2024-01-12T14:48:02.062Z,4.80
2024-01-12T14:50:27.204Z,4.90
2024-01-12T14:52:54.723Z,6.03
2024-01-12T14:55:22.361Z,4.70
2024-01-12T14:57:49.943Z,5.00
2024-01-12T15:00:17.598Z,5.50
2024-01-12T15:02:45.272Z,5.73
2024-01-12T15:05:13.165Z,5.20
2024-01-12T15:07:40.737Z,6.20
2024-01-12T15:10:08.376Z,5.37
2024-01-12T15:13:28.623Z,6.57
2024-01-12T15:15:56.123Z,7.25
2024-01-12T15:18:23.859Z,7.07
2024-01-12T15:20:51.366Z,5.07
2024-01-12T15:23:18.887Z,5.10
2024-01-12T15:25:46.458Z,5.20
2024-01-12T15:28:14.033Z,4.57
2024-01-12T15:30:41.658Z,5.10
2024-01-12T15:33:09.380Z,4.63
2024-01-12T15:35:36.877Z,4.80
2024-01-12T15:38:04.418Z,5.60
2024-01-12T15:40:32.748Z,5.73
2024-01-12T15:43:00.340Z,5.27
2024-01-12T15:45:27.949Z,5.73
2024-01-12T15:47:55.632Z,8.10
2024-01-12T15:50:23.125Z,5.33
2024-01-12T15:52:50.698Z,5.50
2024-01-12T15:55:19.029Z,7.10
2024-01-12T15:57:46.607Z,5.93
2024-01-12T16:00:14.375Z,5.73
2024-01-12T16:02:41.947Z,5.83
2024-01-12T16:05:09.531Z,7.23
2024-01-12T16:07:37.154Z,6.03
2024-01-12T16:10:04.741Z,5.97
2024-01-12T16:12:32.377Z,8.35
2024-01-12T16:14:59.942Z,7.07
2024-01-12T16:17:27.535Z,6.47
2024-01-12T16:19:56.015Z,5.83
2024-01-12T16:22:23.464Z,5.40
2024-01-12T16:24:51.441Z,8.57
2024-01-12T16:27:19.015Z,7.00
2024-01-12T16:29:46.631Z,7.03
2024-01-12T16:32:14.232Z,7.50
2024-01-12T16:34:41.989Z,7.20
2024-01-12T16:37:10.133Z,7.97
2024-01-12T16:39:38.465Z,7.23
2024-01-12T16:42:06.137Z,7.80
2024-01-12T16:44:33.725Z,7.77
2024-01-12T16:47:01.250Z,9.20
2024-01-12T16:49:28.961Z,9.10
2024-01-12T16:51:57.223Z,8.57
2024-01-12T16:54:25.571Z,9.00
2024-01-12T16:56:53.201Z,9.43
2024-01-12T16:59:21.577Z,9.30
2024-01-12T17:01:49.144Z,8.73
2024-01-12T17:04:16.771Z,8.20
2024-01-12T17:06:44.330Z,9.93
2024-01-12T17:09:12.774Z,12.30
2024-01-12T17:11:46.465Z,10.60
2024-01-12T17:14:13.883Z,10.43
2024-01-12T17:16:42.260Z,10.27
2024-01-12T17:19:10.748Z,10.73
2024-01-12T17:21:38.314Z,11.30
2024-01-12T17:24:06.059Z,10.00
2024-01-12T17:26:33.480Z,13.13
2024-01-12T17:29:01.054Z,11.10
2024-01-12T17:31:29.433Z,10.53
2024-01-12T17:33:57.280Z,9.50
2024-01-12T17:36:24.624Z,10.60
2024-01-12T17:38:52.211Z,10.30
2024-01-12T17:41:19.790Z,9.80
2024-01-12T17:43:48.146Z,10.87
2024-01-12T17:46:16.501Z,10.37
2024-01-12T17:48:44.225Z,11.17
2024-01-12T17:51:15.646Z,10.00
2024-01-12T17:53:40.064Z,10.80
2024-01-12T17:56:07.629Z,10.87
2024-01-12T17:58:35.262Z,12.47
2024-01-12T18:01:03.616Z,10.50
2024-01-12T18:03:31.244Z,11.63
2024-01-12T18:05:58.887Z,14.30
2024-01-12T18:08:26.400Z,10.80
2024-01-12T18:10:54.752Z,13.95
2024-01-12T18:13:22.377Z,11.27
2024-01-12T18:15:50.035Z,11.33
2024-01-12T18:18:17.764Z,11.43
2024-01-12T18:20:46.060Z,13.68
2024-01-12T18:23:14.314Z,11.23
2024-01-12T18:25:41.902Z,13.80
2024-01-12T18:28:09.522Z,14.40
2024-01-12T18:30:37.237Z,11.43
2024-01-12T18:33:05.660Z,11.23
2024-01-12T18:35:33.093Z,11.87
2024-01-12T18:38:01.390Z,16.08
2024-01-12T18:40:29.092Z,13.77
2024-01-12T18:42:56.675Z,17.60
2024-01-12T18:45:24.258Z,15.70
2024-01-12T18:47:51.958Z,15.17
2024-01-12T18:50:19.441Z,12.97
2024-01-12T18:52:47.017Z,14.00
2024-01-12T18:55:14.607Z,13.50
2024-01-12T18:57:42.205Z,12.73
2024-01-12T19:00:11.015Z,18.33
2024-01-12T19:02:38.440Z,14.40
2024-01-12T19:05:06.189Z,15.60
2024-01-12T19:07:33.698Z,17.53
2024-01-12T19:10:01.459Z,13.87
2024-01-12T19:12:28.994Z,12.80
2024-01-12T19:14:56.632Z,15.98
2024-01-12T19:17:24.242Z,13.27
2024-01-12T19:19:51.979Z,11.73
2024-01-12T19:22:19.401Z,11.37
2024-01-12T19:24:47.035Z,12.20
2024-01-12T19:27:14.876Z,16.47
2024-01-12T19:29:43.074Z,12.87
2024-01-12T19:32:10.591Z,11.93
2024-01-12T19:34:41.692Z,12.00
2024-01-12T19:37:09.249Z,12.67
2024-01-12T19:39:36.839Z,11.57
2024-01-12T19:42:04.544Z,12.83
2024-01-12T19:44:32.046Z,11.57
2024-01-12T19:46:59.589Z,13.83
2024-01-12T19:49:27.274Z,14.53
2024-01-12T19:51:55.573Z,13.30
2024-01-12T19:54:23.133Z,14.87
2024-01-12T19:56:51.555Z,23.20
2024-01-12T19:59:19.862Z,15.47
2024-01-12T20:01:47.431Z,14.90
2024-01-12T20:04:15.098Z,15.03
2024-01-12T20:06:42.707Z,13.77
2024-01-12T20:09:10.424Z,15.40
2024-01-12T20:11:38.714Z,15.10
2024-01-12T20:14:06.942Z,14.63
2024-01-12T20:16:34.547Z,14.40
2024-01-12T20:19:03.083Z,17.80
2024-01-12T20:21:32.070Z,16.03
2024-01-12T20:23:59.662Z,15.70
2024-01-12T20:26:27.227Z,17.43
2024-01-12T20:28:54.838Z,18.70
2024-01-12T20:31:23.184Z,18.10
2024-01-12T20:33:50.885Z,16.83
2024-01-12T20:36:18.435Z,21.87
2024-01-12T20:38:50.444Z,15.63
2024-01-12T20:41:15.970Z,14.37
2024-01-12T20:43:44.330Z,15.50
2024-01-12T20:46:11.906Z,15.20
2024-01-12T20:48:40.428Z,16.97
2024-01-12T20:51:08.780Z,17.70
2024-01-12T20:53:36.289Z,20.23
2024-01-12T20:56:03.853Z,24.90
2024-01-12T20:58:31.452Z,18.97
2024-01-12T21:00:59.963Z,17.53
2024-01-12T21:03:27.641Z,18.77
2024-01-12T21:05:55.140Z,22.30
2024-01-12T21:08:22.641Z,17.10
2024-01-12T21:10:50.236Z,17.50
2024-01-12T21:13:17.750Z,16.17
2024-01-12T21:15:45.354Z,15.30
2024-01-12T21:18:13.153Z,18.17
2024-01-12T21:20:40.613Z,22.42
2024-01-12T21:23:08.161Z,17.70
2024-01-12T21:25:35.764Z,16.97
2024-01-12T21:28:03.346Z,16.83
2024-01-12T21:30:31.042Z,16.77
2024-01-12T21:32:59.462Z,20.70
2024-01-12T21:35:27.738Z,16.97
2024-01-12T21:37:55.290Z,18.27
2024-01-12T21:40:23.662Z,17.70
2024-01-12T21:42:51.248Z,15.60
2024-01-12T21:45:18.989Z,16.60
2024-01-12T21:47:46.654Z,20.87
2024-01-12T21:50:14.026Z,17.13
2024-01-12T21:52:41.634Z,17.43
2024-01-12T21:55:09.228Z,17.57
2024-01-12T21:57:36.845Z,24.47
2024-01-12T22:00:04.571Z,21.30
2024-01-12T22:02:32.222Z,22.03
2024-01-12T22:04:59.681Z,19.83
2024-01-12T22:07:27.314Z,18.73
2024-01-12T22:09:54.879Z,20.30
2024-01-12T22:12:22.452Z,16.23
2024-01-12T22:14:50.105Z,15.67
2024-01-12T22:17:17.657Z,16.60
2024-01-12T22:19:45.287Z,16.20
2024-01-12T22:22:12.835Z,17.70
2024-01-12T22:24:40.466Z,18.30
2024-01-12T22:27:08.132Z,23.00
2024-01-12T22:29:35.687Z,19.70
2024-01-12T22:32:03.274Z,18.77
2024-01-12T22:34:30.909Z,16.87
2024-01-12T22:36:59.261Z,18.80
2024-01-12T22:39:26.826Z,17.90
2024-01-12T22:41:54.412Z,16.73
2024-01-12T22:44:21.987Z,16.73
2024-01-12T22:46:51.501Z,16.97
2024-01-12T22:49:19.218Z,16.33
2024-01-12T22:51:47.513Z,21.17
2024-01-12T22:54:15.077Z,18.37
2024-01-12T22:56:43.381Z,17.27
2024-01-12T22:59:10.952Z,17.67
2024-01-12T23:01:39.318Z,21.87
2024-01-12T23:04:07.738Z,16.63
2024-01-12T23:06:35.297Z,17.00
2024-01-12T23:09:02.877Z,15.47
2024-01-12T23:11:30.499Z,16.33
2024-01-12T23:13:58.027Z,16.43
2024-01-12T23:16:25.651Z,15.63
2024-01-12T23:18:53.355Z,20.15
2024-01-12T23:21:20.803Z,17.67
2024-01-12T23:23:48.449Z,21.10
2024-01-12T23:26:16.016Z,21.65
2024-01-12T23:28:43.609Z,17.10
2024-01-12T23:31:12.115Z,16.27
2024-01-12T23:33:40.496Z,16.10
2024-01-12T23:36:08.023Z,17.60
2024-01-12T23:38:35.849Z,17.43
2024-01-12T23:41:03.209Z,16.30
2024-01-12T23:43:30.770Z,17.97
2024-01-12T23:45:58.383Z,19.13
2024-01-12T23:48:34.079Z,21.50
2024-01-12T23:50:53.671Z,17.47
2024-01-12T23:53:21.224Z,16.90
2024-01-12T23:55:48.805Z,17.27
2024-01-12T23:58:20.160Z,16.43
